For GOD so loved the world that HE gave HIS one and only SON, that whoever believes in HIM shall not perish but have eternal life.


Thunder radar more information blitzortung!


Rain radar more information rain snow radar



Weather Underground History page Text

Daily Summary for January 19, 2018 Units:  English    Metric   Both
« Previous Day
Next Day »
Daily Weekly Monthly Yearly Custom
  Current: High: Low: Average:
Temperature: 37.2 °F 37.4 °F 25.3 °F 30.7 °F
Dew Point: 24.2 °F 24.2 °F 16.2 °F 20.1 °F
Humidity: 59 % 69 % 58 % 65 %
Wind Speed: 2.2 mph 9.5 mph 0.7 mph 5 mph
Wind Gust: 3.5 mph 17.3 mph - -
Wind:West - - WSW
Pressure: 29.89 in 30.01 in 29.89 in -
Precipitation: 0.00 in      
Historical Graphs
 
 
Tabular Data for January 19, 2018
Time Temperature Dew Point Pressure Wind Wind Speed Wind Gust Humidity Rainfall Rate (Hourly)
00:04 25.3 °F 16.2 °F 30.01 in WSW 3.7 mph 4.6 mph 68 % 0.00 in
00:09 25.3 °F 16.2 °F 30.01 in SW 2.8 mph 3.5 mph 68 % 0.00 in
00:14 25.3 °F 16.2 °F 30.00 in WSW 2.8 mph 5.8 mph 68 % 0.00 in
00:19 25.4 °F 16.3 °F 30.00 in SSW 2.0 mph 3.5 mph 68 % 0.00 in
00:24 25.4 °F 16.3 °F 30.00 in SW 4.1 mph 6.9 mph 68 % 0.00 in
00:29 25.6 °F 16.5 °F 30.00 in SSW 1.2 mph 3.5 mph 68 % 0.00 in
00:34 25.7 °F 16.3 °F 30.00 in WSW 2.4 mph 5.8 mph 67 % 0.00 in
00:39 25.7 °F 16.3 °F 30.00 in WSW 3.4 mph 4.6 mph 67 % 0.00 in
00:44 25.9 °F 16.4 °F 30.00 in West 2.1 mph 3.5 mph 67 % 0.00 in
00:49 26.0 °F 16.5 °F 30.00 in SW 2.6 mph 4.6 mph 67 % 0.00 in
00:54 26.2 °F 16.7 °F 30.00 in SW 3.9 mph 6.9 mph 67 % 0.00 in
00:59 26.5 °F 16.7 °F 30.00 in SSW 2.7 mph 3.5 mph 66 % 0.00 in
01:04 26.8 °F 17.0 °F 30.00 in WSW 4.0 mph 6.9 mph 66 % 0.00 in
01:09 27.0 °F 17.1 °F 30.00 in WSW 3.1 mph 6.9 mph 66 % 0.00 in
01:14 27.3 °F 17.1 °F 30.00 in West 2.9 mph 5.8 mph 65 % 0.00 in
01:19 27.6 °F 17.4 °F 30.00 in SW 4.6 mph 11.5 mph 65 % 0.00 in
01:24 27.9 °F 17.6 °F 29.99 in WSW 3.4 mph 8.0 mph 65 % 0.00 in
01:29 28.1 °F 17.8 °F 29.99 in SW 4.7 mph 9.2 mph 65 % 0.00 in
01:34 28.2 °F 17.9 °F 30.00 in SSW 5.4 mph 10.0 mph 65 % 0.00 in
01:39 28.5 °F 18.2 °F 30.00 in WSW 5.2 mph 8.1 mph 65 % 0.00 in
01:44 28.7 °F 18.1 °F 29.99 in WSW 5.3 mph 9.2 mph 64 % 0.00 in
01:49 28.9 °F 18.6 °F 29.99 in WSW 7.0 mph 9.2 mph 65 % 0.00 in
01:54 29.0 °F 18.7 °F 29.99 in WSW 7.6 mph 8.1 mph 65 % 0.00 in
01:59 29.1 °F 18.8 °F 30.00 in WSW 7.1 mph 9.2 mph 65 % 0.00 in
02:04 29.3 °F 18.6 °F 30.00 in SW 5.3 mph 8.1 mph 64 % 0.00 in
02:09 29.3 °F 19.0 °F 29.99 in West 6.2 mph 13.8 mph 65 % 0.00 in
02:14 29.3 °F 19.0 °F 30.00 in WSW 6.1 mph 11.5 mph 65 % 0.00 in
02:19 29.3 °F 19.0 °F 30.00 in West 6.4 mph 9.2 mph 65 % 0.00 in
02:24 29.3 °F 19.0 °F 30.00 in WSW 6.3 mph 9.2 mph 65 % 0.00 in
02:29 29.3 °F 19.0 °F 30.00 in West 7.7 mph 10.4 mph 65 % 0.00 in
02:34 29.3 °F 19.0 °F 30.00 in WSW 6.8 mph 11.5 mph 65 % 0.00 in
02:39 29.3 °F 19.0 °F 30.00 in West 6.9 mph 11.5 mph 65 % 0.00 in
02:44 29.2 °F 18.9 °F 30.00 in WSW 6.2 mph 8.1 mph 65 % 0.00 in
02:49 29.2 °F 18.9 °F 30.00 in West 5.8 mph 10.4 mph 65 % 0.00 in
02:55 29.1 °F 19.2 °F 30.00 in WNW 4.4 mph 9.2 mph 66 % 0.00 in
03:00 29.1 °F 19.2 °F 30.00 in WSW 7.3 mph 11.5 mph 66 % 0.00 in
03:05 29.1 °F 19.2 °F 30.00 in West 5.9 mph 6.9 mph 66 % 0.00 in
03:10 29.1 °F 19.5 °F 30.00 in WSW 5.4 mph 11.5 mph 67 % 0.00 in
03:15 29.1 °F 19.2 °F 30.00 in West 9.2 mph 11.5 mph 66 % 0.00 in
03:20 29.1 °F 19.5 °F 30.00 in West 4.7 mph 10.4 mph 67 % 0.00 in
03:25 29.1 °F 19.5 °F 30.00 in West 7.1 mph 9.2 mph 67 % 0.00 in
03:30 29.0 °F 19.4 °F 30.00 in WSW 6.4 mph 10.4 mph 67 % 0.00 in
03:35 29.0 °F 19.4 °F 30.00 in West 9.5 mph 12.7 mph 67 % 0.00 in
03:40 29.1 °F 19.5 °F 30.00 in SW 7.5 mph 8.1 mph 67 % 0.00 in
03:45 29.1 °F 19.8 °F 29.99 in West 5.8 mph 11.5 mph 68 % 0.00 in
03:50 29.2 °F 19.9 °F 30.00 in West 7.8 mph 13.8 mph 68 % 0.00 in
03:55 29.3 °F 20.0 °F 30.00 in WSW 4.0 mph 8.1 mph 68 % 0.00 in
04:00 29.4 °F 20.1 °F 30.00 in WSW 7.0 mph 10.4 mph 68 % 0.00 in
04:05 29.4 °F 20.1 °F 29.99 in SSW 6.3 mph 9.2 mph 68 % 0.00 in
04:10 29.5 °F 20.2 °F 29.99 in SW 7.8 mph 11.5 mph 68 % 0.00 in
04:15 29.6 °F 20.3 °F 30.00 in West 7.6 mph 12.7 mph 68 % 0.00 in
04:20 29.6 °F 20.3 °F 30.00 in SW 7.1 mph 10.4 mph 68 % 0.00 in
04:25 29.7 °F 20.4 °F 30.00 in SW 5.7 mph 9.2 mph 68 % 0.00 in
04:30 29.7 °F 20.4 °F 30.01 in West 7.7 mph 11.5 mph 68 % 0.00 in
04:35 29.8 °F 20.5 °F 30.01 in SW 7.0 mph 9.2 mph 68 % 0.00 in
04:40 29.8 °F 20.5 °F 30.01 in West 5.5 mph 12.0 mph 68 % 0.00 in
04:45 29.8 °F 20.5 °F 30.01 in WNW 7.1 mph 11.5 mph 68 % 0.00 in
04:50 29.8 °F 20.5 °F 30.01 in West 4.8 mph 9.0 mph 68 % 0.00 in
04:55 29.8 °F 20.5 °F 30.01 in WSW 6.7 mph 9.2 mph 68 % 0.00 in
05:00 29.8 °F 20.5 °F 30.01 in West 7.7 mph 13.0 mph 68 % 0.00 in
05:05 29.8 °F 20.5 °F 30.01 in West 6.4 mph 13.8 mph 68 % 0.00 in
05:10 29.8 °F 20.5 °F 30.01 in WSW 9.3 mph 11.5 mph 68 % 0.00 in
05:15 29.7 °F 20.4 °F 30.00 in WSW 6.7 mph 10.4 mph 68 % 0.00 in
05:20 29.7 °F 20.8 °F 30.01 in West 6.6 mph 10.0 mph 69 % 0.00 in
05:25 29.7 °F 20.8 °F 30.00 in WSW 7.7 mph 12.7 mph 69 % 0.00 in
05:30 29.7 °F 20.8 °F 30.01 in West 3.6 mph 5.8 mph 69 % 0.00 in
05:35 29.7 °F 20.4 °F 30.00 in WSW 6.9 mph 9.2 mph 68 % 0.00 in
05:40 29.7 °F 20.4 °F 30.00 in WSW 6.6 mph 8.1 mph 68 % 0.00 in
05:45 29.7 °F 20.4 °F 30.00 in WSW 3.1 mph 8.1 mph 68 % 0.00 in
05:50 29.7 °F 20.8 °F 30.00 in West 7.4 mph 15.0 mph 69 % 0.00 in
05:55 29.6 °F 20.7 °F 30.00 in West 7.6 mph 11.5 mph 69 % 0.00 in
06:00 29.6 °F 20.3 °F 30.01 in West 5.1 mph 9.0 mph 68 % 0.00 in
06:05 29.6 °F 20.3 °F 30.00 in WSW 7.1 mph 11.0 mph 68 % 0.00 in
06:10 29.6 °F 20.3 °F 30.01 in SW 5.9 mph 6.9 mph 68 % 0.00 in
06:15 29.5 °F 20.2 °F 30.01 in WSW 6.9 mph 11.5 mph 68 % 0.00 in
06:20 29.5 °F 20.2 °F 30.00 in SW 7.2 mph 10.4 mph 68 % 0.00 in
06:25 29.5 °F 20.2 °F 30.00 in West 7.2 mph 12.7 mph 68 % 0.00 in
06:30 29.4 °F 20.1 °F 30.00 in WSW 6.7 mph 10.4 mph 68 % 0.00 in
06:35 29.4 °F 20.1 °F 30.00 in West 6.1 mph 9.2 mph 68 % 0.00 in
06:40 29.4 °F 20.1 °F 30.00 in WSW 4.3 mph 6.9 mph 68 % 0.00 in
06:45 29.4 °F 20.1 °F 30.00 in SW 6.0 mph 8.1 mph 68 % 0.00 in
06:50 29.4 °F 20.1 °F 30.00 in WSW 6.3 mph 10.4 mph 68 % 0.00 in
06:55 29.4 °F 20.1 °F 30.00 in WSW 4.9 mph 8.1 mph 68 % 0.00 in
07:00 29.4 °F 20.1 °F 30.00 in West 4.7 mph 8.1 mph 68 % 0.00 in
07:05 29.4 °F 20.1 °F 30.01 in WSW 3.3 mph 9.2 mph 68 % 0.00 in
07:10 29.3 °F 20.0 °F 30.01 in WSW 8.3 mph 9.2 mph 68 % 0.00 in
07:15 29.3 °F 20.0 °F 30.00 in SSW 7.4 mph 10.0 mph 68 % 0.00 in
07:20 29.3 °F 20.0 °F 30.01 in West 7.6 mph 8.1 mph 68 % 0.00 in
07:25 29.3 °F 20.0 °F 30.01 in SW 7.4 mph 11.5 mph 68 % 0.00 in
07:30 29.3 °F 20.0 °F 30.01 in West 6.2 mph 8.1 mph 68 % 0.00 in
07:35 29.3 °F 19.7 °F 30.01 in WNW 7.4 mph 9.2 mph 67 % 0.00 in
07:40 29.2 °F 19.6 °F 30.01 in West 4.4 mph 6.9 mph 67 % 0.00 in
07:45 29.2 °F 19.6 °F 30.01 in SW 6.2 mph 10.4 mph 67 % 0.00 in
07:50 29.1 °F 19.8 °F 30.01 in West 4.3 mph 6.9 mph 68 % 0.00 in
07:55 29.1 °F 19.5 °F 30.01 in SSW 5.5 mph 6.9 mph 67 % 0.00 in
08:00 29.1 °F 19.5 °F 30.01 in WSW 6.3 mph 11.5 mph 67 % 0.00 in
08:05 29.1 °F 19.5 °F 30.01 in West 5.5 mph 9.2 mph 67 % 0.00 in
08:10 29.1 °F 19.5 °F 30.01 in West 5.1 mph 8.1 mph 67 % 0.00 in
08:15 29.1 °F 19.5 °F 30.00 in SW 5.1 mph 9.2 mph 67 % 0.00 in
08:20 29.1 °F 19.5 °F 30.00 in West 5.9 mph 11.5 mph 67 % 0.00 in
08:25 29.1 °F 19.5 °F 30.00 in WSW 4.0 mph 5.8 mph 67 % 0.00 in
08:30 29.1 °F 19.5 °F 30.00 in WSW 4.5 mph 5.8 mph 67 % 0.00 in
08:35 29.1 °F 19.5 °F 30.00 in West 7.2 mph 9.2 mph 67 % 0.00 in
08:40 29.2 °F 19.6 °F 30.00 in SSW 4.2 mph 8.1 mph 67 % 0.00 in
08:45 29.2 °F 19.6 °F 30.00 in West 5.0 mph 8.1 mph 67 % 0.00 in
08:50 29.2 °F 19.6 °F 30.00 in West 3.8 mph 4.6 mph 67 % 0.00 in
08:55 29.3 °F 19.3 °F 30.00 in SW 1.6 mph 6.9 mph 66 % 0.00 in
09:00 29.3 °F 19.3 °F 30.00 in WSW 6.9 mph 10.4 mph 66 % 0.00 in
09:05 29.2 °F 18.9 °F 30.00 in SW 4.5 mph 9.2 mph 65 % 0.00 in
09:10 29.2 °F 18.9 °F 30.00 in WSW 3.3 mph 7.0 mph 65 % 0.00 in
09:15 29.2 °F 18.9 °F 30.00 in SW 3.5 mph 7.0 mph 65 % 0.00 in
09:20 29.1 °F 18.8 °F 30.01 in WSW 3.8 mph 4.6 mph 65 % 0.00 in
09:25 28.6 °F 18.3 °F 30.01 in SW 3.2 mph 9.2 mph 65 % 0.00 in
09:30 28.4 °F 18.1 °F 30.01 in West 3.7 mph 3.7 mph 65 % 0.00 in
09:35 28.2 °F 17.9 °F 30.01 in West 1.7 mph 3.5 mph 65 % 0.00 in
09:40 28.3 °F 18.0 °F 30.01 in SW 2.2 mph 5.8 mph 65 % 0.00 in
09:45 28.3 °F 18.0 °F 30.01 in SW 2.9 mph 8.1 mph 65 % 0.00 in
09:50 28.5 °F 18.2 °F 30.01 in SW 4.8 mph 6.9 mph 65 % 0.00 in
09:55 28.9 °F 18.2 °F 30.01 in WSW 2.4 mph 5.8 mph 64 % 0.00 in
10:00 29.0 °F 18.3 °F 30.01 in WSW 3.6 mph 4.6 mph 64 % 0.00 in
10:05 29.1 °F 18.8 °F 30.01 in WSW 3.2 mph 3.5 mph 65 % 0.00 in
10:10 29.1 °F 18.4 °F 30.01 in SW 3.6 mph 8.1 mph 64 % 0.00 in
10:15 29.5 °F 18.8 °F 30.01 in WSW 5.2 mph 8.1 mph 64 % 0.00 in
10:20 29.7 °F 18.6 °F 30.01 in West 4.2 mph 8.1 mph 63 % 0.00 in
10:25 29.7 °F 19.0 °F 30.01 in WSW 3.7 mph 6.9 mph 64 % 0.00 in
10:30 30.1 °F 19.4 °F 30.01 in WSW 3.5 mph 4.6 mph 64 % 0.00 in
10:35 30.5 °F 19.4 °F 30.01 in West 3.4 mph 6.9 mph 63 % 0.00 in
10:40 30.8 °F 19.3 °F 30.01 in West 4.3 mph 8.1 mph 62 % 0.00 in
10:45 30.9 °F 19.0 °F 30.01 in WSW 6.6 mph 13.8 mph 61 % 0.00 in
10:50 30.8 °F 19.3 °F 30.01 in SW 3.9 mph 6.9 mph 62 % 0.00 in
10:55 31.1 °F 19.6 °F 30.01 in WSW 4.3 mph 9.2 mph 62 % 0.00 in
11:00 31.1 °F 19.6 °F 30.01 in WSW 3.1 mph 10.4 mph 62 % 0.00 in
11:05 31.2 °F 19.7 °F 30.01 in SW 3.4 mph 4.6 mph 62 % 0.00 in
11:10 31.7 °F 19.8 °F 30.00 in WSW 2.9 mph 5.0 mph 61 % 0.00 in
11:15 31.6 °F 19.7 °F 30.00 in SW 5.5 mph 9.0 mph 61 % 0.00 in
11:20 31.9 °F 20.0 °F 29.99 in West 4.6 mph 8.1 mph 61 % 0.00 in
11:25 31.8 °F 20.3 °F 29.99 in WSW 4.1 mph 8.1 mph 62 % 0.00 in
11:30 32.1 °F 20.2 °F 29.99 in West 5.6 mph 10.4 mph 61 % 0.00 in
11:35 32.1 °F 20.2 °F 29.99 in WSW 3.7 mph 11.0 mph 61 % 0.00 in
11:40 32.2 °F 20.2 °F 29.98 in West 7.7 mph 9.2 mph 61 % 0.00 in
11:45 32.4 °F 20.4 °F 29.98 in WSW 4.5 mph 8.1 mph 61 % 0.00 in
11:50 32.6 °F 20.6 °F 29.98 in WSW 4.5 mph 9.2 mph 61 % 0.00 in
11:55 32.6 °F 20.6 °F 29.99 in SSW 7.3 mph 17.3 mph 61 % 0.00 in
12:00 32.7 °F 20.7 °F 29.98 in SW 5.9 mph 7.0 mph 61 % 0.00 in
12:05 32.8 °F 20.8 °F 29.98 in WSW 4.4 mph 7.0 mph 61 % 0.00 in
12:10 33.1 °F 21.1 °F 29.97 in WSW 6.3 mph 9.2 mph 61 % 0.00 in
12:15 33.0 °F 21.0 °F 29.97 in WSW 7.1 mph 8.1 mph 61 % 0.00 in
12:20 33.1 °F 21.1 °F 29.96 in South 7.1 mph 13.0 mph 61 % 0.00 in
12:26 33.3 °F 21.3 °F 29.96 in West 4.4 mph 5.8 mph 61 % 0.00 in
12:30 33.8 °F 21.0 °F 29.96 in West 5.9 mph 9.2 mph 59 % 0.00 in
12:35 33.6 °F 21.2 °F 29.96 in SW 4.6 mph 9.2 mph 60 % 0.00 in
12:40 34.0 °F 21.2 °F 29.96 in West 4.5 mph 6.9 mph 59 % 0.00 in
12:46 34.1 °F 21.3 °F 29.95 in West 3.9 mph 11.5 mph 59 % 0.00 in
12:51 34.2 °F 21.7 °F 29.94 in West 6.1 mph 8.0 mph 60 % 0.00 in
12:56 34.1 °F 21.7 °F 29.94 in WSW 6.7 mph 8.1 mph 60 % 0.00 in
13:01 34.0 °F 21.6 °F 29.94 in WSW 4.4 mph 6.9 mph 60 % 0.00 in
13:06 34.3 °F 21.8 °F 29.94 in SW 4.3 mph 8.1 mph 60 % 0.00 in
13:11 34.7 °F 21.8 °F 29.94 in SW 3.1 mph 5.8 mph 59 % 0.00 in
13:16 34.8 °F 21.9 °F 29.94 in WSW 4.8 mph 4.8 mph 59 % 0.00 in
13:21 34.7 °F 21.4 °F 29.94 in West 5.0 mph 6.9 mph 58 % 0.00 in
13:26 34.8 °F 21.9 °F 29.94 in WSW 5.0 mph 11.0 mph 59 % 0.00 in
13:31 35.0 °F 22.1 °F 29.94 in West 4.0 mph 6.0 mph 59 % 0.00 in
13:36 35.1 °F 21.8 °F 29.94 in West 6.9 mph 9.2 mph 58 % 0.00 in
13:41 35.0 °F 21.7 °F 29.94 in West 5.5 mph 11.5 mph 58 % 0.00 in
13:46 34.9 °F 22.0 °F 29.94 in West 5.5 mph 8.1 mph 59 % 0.00 in
13:51 35.0 °F 22.1 °F 29.93 in West 7.1 mph 10.4 mph 59 % 0.00 in
13:56 35.0 °F 22.1 °F 29.93 in WSW 4.6 mph 8.1 mph 59 % 0.00 in
14:01 35.3 °F 22.4 °F 29.92 in West 1.8 mph 4.6 mph 59 % 0.00 in
14:06 35.3 °F 22.8 °F 29.92 in West 5.0 mph 9.2 mph 60 % 0.00 in
14:11 35.3 °F 23.2 °F 29.93 in West 4.6 mph 8.1 mph 61 % 0.00 in
14:16 35.1 °F 23.0 °F 29.92 in West 4.7 mph 6.9 mph 61 % 0.00 in
14:21 35.3 °F 23.2 °F 29.92 in West 1.9 mph 3.5 mph 61 % 0.00 in
14:26 35.5 °F 23.4 °F 29.92 in West 3.3 mph 3.5 mph 61 % 0.00 in
14:31 35.5 °F 23.4 °F 29.92 in WNW 2.1 mph 5.8 mph 61 % 0.00 in
14:36 35.2 °F 23.5 °F 29.92 in West 2.9 mph 6.9 mph 62 % 0.00 in
14:41 35.3 °F 23.6 °F 29.92 in West 2.8 mph 5.8 mph 62 % 0.00 in
14:46 35.5 °F 23.4 °F 29.91 in WSW 4.2 mph 6.9 mph 61 % 0.00 in
14:51 35.8 °F 23.7 °F 29.91 in WSW 2.2 mph 4.6 mph 61 % 0.00 in
14:56 36.0 °F 23.4 °F 29.91 in West 2.9 mph 3.5 mph 60 % 0.00 in
15:01 35.9 °F 23.7 °F 29.91 in West 3.2 mph 4.0 mph 61 % 0.00 in
15:06 35.6 °F 23.5 °F 29.91 in West 4.5 mph 8.1 mph 61 % 0.00 in
15:11 35.5 °F 23.8 °F 29.91 in West 2.6 mph 3.5 mph 62 % 0.00 in
15:16 35.6 °F 23.9 °F 29.90 in West 2.5 mph 3.5 mph 62 % 0.00 in
15:21 35.8 °F 24.0 °F 29.90 in West 2.1 mph 6.0 mph 62 % 0.00 in
15:26 36.0 °F 23.8 °F 29.90 in West 3.4 mph 5.8 mph 61 % 0.00 in
15:31 36.2 °F 24.0 °F 29.89 in WSW 3.0 mph 6.9 mph 61 % 0.00 in
15:36 36.8 °F 23.8 °F 29.90 in SW 1.3 mph 3.5 mph 59 % 0.00 in
15:41 37.0 °F 23.6 °F 29.90 in SW 3.4 mph 4.6 mph 58 % 0.00 in
15:46 37.0 °F 24.0 °F 29.90 in West 1.6 mph 3.5 mph 59 % 0.00 in
15:51 37.2 °F 23.8 °F 29.90 in WSW 1.5 mph 3.5 mph 58 % 0.00 in
15:56 37.3 °F 23.9 °F 29.90 in WSW 1.7 mph 3.5 mph 58 % 0.00 in
16:01 37.4 °F 24.0 °F 29.90 in West 0.7 mph 2.3 mph 58 % 0.00 in
16:06 37.2 °F 24.2 °F 29.89 in West 2.2 mph 3.5 mph 59 % 0.00 in
Bullis Road Weather
Compliments of Weather Underground - 3.25 mb

Script developed by  Jim McMurry - jmcmurry@mwt.net Adapted for the template by  Wim van der Kuil - Leuven-Template.eu